sensor_id;sensor_type;location;lat;lon;timestamp;temperature;humidity
76168;DHT22;64927;48.214;16.378;2023-05-20T00:01:21;15.50;73.30
76168;DHT22;64927;48.214;16.378;2023-05-20T00:03:51;15.60;73.00
76168;DHT22;64927;48.214;16.378;2023-05-20T00:06:19;15.60;72.80
76168;DHT22;64927;48.214;16.378;2023-05-20T00:08:45;15.60;72.60
76168;DHT22;64927;48.214;16.378;2023-05-20T00:11:11;15.60;72.50
76168;DHT22;64927;48.214;16.378;2023-05-20T00:13:37;15.50;72.50
76168;DHT22;64927;48.214;16.378;2023-05-20T00:16:05;15.50;72.70
76168;DHT22;64927;48.214;16.378;2023-05-20T00:18:31;15.50;72.60
76168;DHT22;64927;48.214;16.378;2023-05-20T00:20:59;15.50;72.80
76168;DHT22;64927;48.214;16.378;2023-05-20T00:23:24;15.30;73.20
76168;DHT22;64927;48.214;16.378;2023-05-20T00:25:50;15.40;73.00
76168;DHT22;64927;48.214;16.378;2023-05-20T00:28:16;15.40;72.90
76168;DHT22;64927;48.214;16.378;2023-05-20T00:30:41;15.30;73.20
76168;DHT22;64927;48.214;16.378;2023-05-20T00:33:07;15.30;73.10
76168;DHT22;64927;48.214;16.378;2023-05-20T00:35:33;15.20;73.10
76168;DHT22;64927;48.214;16.378;2023-05-20T00:38:01;15.10;73.70
76168;DHT22;64927;48.214;16.378;2023-05-20T00:40:29;15.10;73.30
76168;DHT22;64927;48.214;16.378;2023-05-20T00:42:57;15.00;74.20
76168;DHT22;64927;48.214;16.378;2023-05-20T00:45:22;14.90;74.50
76168;DHT22;64927;48.214;16.378;2023-05-20T00:47:48;14.90;74.70
76168;DHT22;64927;48.214;16.378;2023-05-20T00:50:16;14.90;74.70
76168;DHT22;64927;48.214;16.378;2023-05-20T00:52:42;14.90;75.00
76168;DHT22;64927;48.214;16.378;2023-05-20T00:55:12;14.80;76.00
76168;DHT22;64927;48.214;16.378;2023-05-20T00:57:38;14.70;76.20
76168;DHT22;64927;48.214;16.378;2023-05-20T01:00:06;14.70;76.40
76168;DHT22;64927;48.214;16.378;2023-05-20T01:02:33;14.70;76.60
76168;DHT22;64927;48.214;16.378;2023-05-20T01:05:03;14.70;76.00
76168;DHT22;64927;48.214;16.378;2023-05-20T01:07:34;14.70;76.60
76168;DHT22;64927;48.214;16.378;2023-05-20T01:10:00;14.60;76.70
76168;DHT22;64927;48.214;16.378;2023-05-20T01:12:30;14.60;76.70
76168;DHT22;64927;48.214;16.378;2023-05-20T01:15:02;14.60;76.70
76168;DHT22;64927;48.214;16.378;2023-05-20T01:17:30;14.60;76.30
76168;DHT22;64927;48.214;16.378;2023-05-20T01:19:58;14.60;76.20
76168;DHT22;64927;48.214;16.378;2023-05-20T01:22:28;14.60;76.00
76168;DHT22;64927;48.214;16.378;2023-05-20T01:24:54;14.50;76.10
76168;DHT22;64927;48.214;16.378;2023-05-20T01:27:25;14.40;76.10
76168;DHT22;64927;48.214;16.378;2023-05-20T01:29:51;14.50;76.10
76168;DHT22;64927;48.214;16.378;2023-05-20T01:32:21;14.50;76.20
76168;DHT22;64927;48.214;16.378;2023-05-20T01:34:51;14.50;76.50
76168;DHT22;64927;48.214;16.378;2023-05-20T01:37:18;14.40;76.60
76168;DHT22;64927;48.214;16.378;2023-05-20T01:39:48;14.50;76.40
76168;DHT22;64927;48.214;16.378;2023-05-20T01:42:15;14.50;76.40
76168;DHT22;64927;48.214;16.378;2023-05-20T01:44:42;14.50;76.10
76168;DHT22;64927;48.214;16.378;2023-05-20T01:47:08;14.50;76.20
76168;DHT22;64927;48.214;16.378;2023-05-20T01:49:33;14.50;75.90
76168;DHT22;64927;48.214;16.378;2023-05-20T01:52:01;14.40;76.10
76168;DHT22;64927;48.214;16.378;2023-05-20T01:54:30;14.40;76.10
76168;DHT22;64927;48.214;16.378;2023-05-20T01:56:56;14.40;76.20
76168;DHT22;64927;48.214;16.378;2023-05-20T01:59:22;14.30;76.10
76168;DHT22;64927;48.214;16.378;2023-05-20T02:01:47;14.20;76.40
76168;DHT22;64927;48.214;16.378;2023-05-20T02:04:13;14.20;76.20
76168;DHT22;64927;48.214;16.378;2023-05-20T02:06:39;14.20;77.00
76168;DHT22;64927;48.214;16.378;2023-05-20T02:09:04;14.30;76.00
76168;DHT22;64927;48.214;16.378;2023-05-20T02:11:30;14.30;75.70
76168;DHT22;64927;48.214;16.378;2023-05-20T02:13:56;14.30;75.50
76168;DHT22;64927;48.214;16.378;2023-05-20T02:16:24;14.30;75.50
76168;DHT22;64927;48.214;16.378;2023-05-20T02:18:50;14.20;75.90
76168;DHT22;64927;48.214;16.378;2023-05-20T02:21:17;14.10;75.90
76168;DHT22;64927;48.214;16.378;2023-05-20T02:23:42;14.10;76.40
76168;DHT22;64927;48.214;16.378;2023-05-20T02:26:08;14.10;76.20
76168;DHT22;64927;48.214;16.378;2023-05-20T02:28:34;14.00;76.20
76168;DHT22;64927;48.214;16.378;2023-05-20T02:31:04;14.10;75.90
76168;DHT22;64927;48.214;16.378;2023-05-20T02:33:33;14.20;75.50
76168;DHT22;64927;48.214;16.378;2023-05-20T02:35:59;14.20;75.40
76168;DHT22;64927;48.214;16.378;2023-05-20T02:38:24;14.10;75.20
76168;DHT22;64927;48.214;16.378;2023-05-20T02:40:54;14.10;75.20
76168;DHT22;64927;48.214;16.378;2023-05-20T02:43:20;14.20;75.00
76168;DHT22;64927;48.214;16.378;2023-05-20T02:45:48;14.20;74.90
76168;DHT22;64927;48.214;16.378;2023-05-20T02:48:13;14.00;75.20
76168;DHT22;64927;48.214;16.378;2023-05-20T02:50:39;13.90;75.60
76168;DHT22;64927;48.214;16.378;2023-05-20T02:53:07;13.90;75.70
76168;DHT22;64927;48.214;16.378;2023-05-20T02:55:33;13.90;75.60
76168;DHT22;64927;48.214;16.378;2023-05-20T02:58:01;13.90;75.30
76168;DHT22;64927;48.214;16.378;2023-05-20T03:00:28;13.90;75.60
76168;DHT22;64927;48.214;16.378;2023-05-20T03:02:55;13.90;75.40
76168;DHT22;64927;48.214;16.378;2023-05-20T03:05:21;13.90;75.30
76168;DHT22;64927;48.214;16.378;2023-05-20T03:07:47;13.90;75.30
76168;DHT22;64927;48.214;16.378;2023-05-20T03:10:13;13.90;75.50
76168;DHT22;64927;48.214;16.378;2023-05-20T03:12:39;13.80;75.70
76168;DHT22;64927;48.214;16.378;2023-05-20T03:15:05;13.80;75.90
76168;DHT22;64927;48.214;16.378;2023-05-20T03:17:31;13.90;75.50
76168;DHT22;64927;48.214;16.378;2023-05-20T03:19:57;13.80;75.50
76168;DHT22;64927;48.214;16.378;2023-05-20T03:22:22;13.70;75.70
76168;DHT22;64927;48.214;16.378;2023-05-20T03:24:48;13.70;75.80
76168;DHT22;64927;48.214;16.378;2023-05-20T03:27:14;13.80;75.90
76168;DHT22;64927;48.214;16.378;2023-05-20T03:29:42;13.80;75.60
76168;DHT22;64927;48.214;16.378;2023-05-20T03:32:08;13.80;75.80
76168;DHT22;64927;48.214;16.378;2023-05-20T03:34:36;13.70;75.70
76168;DHT22;64927;48.214;16.378;2023-05-20T03:37:04;13.80;75.70
76168;DHT22;64927;48.214;16.378;2023-05-20T03:39:30;13.70;75.50
76168;DHT22;64927;48.214;16.378;2023-05-20T03:41:55;13.70;75.70
76168;DHT22;64927;48.214;16.378;2023-05-20T03:44:21;13.80;75.70
76168;DHT22;64927;48.214;16.378;2023-05-20T03:46:49;13.90;75.20
76168;DHT22;64927;48.214;16.378;2023-05-20T03:49:14;13.90;75.20
76168;DHT22;64927;48.214;16.378;2023-05-20T03:51:40;14.00;74.60
76168;DHT22;64927;48.214;16.378;2023-05-20T03:54:05;14.00;74.70
76168;DHT22;64927;48.214;16.378;2023-05-20T03:56:31;13.80;75.20
76168;DHT22;64927;48.214;16.378;2023-05-20T03:58:56;13.90;75.30
76168;DHT22;64927;48.214;16.378;2023-05-20T04:01:22;13.90;76.10
76168;DHT22;64927;48.214;16.378;2023-05-20T04:03:50;13.80;75.30
76168;DHT22;64927;48.214;16.378;2023-05-20T04:06:15;13.80;75.50
76168;DHT22;64927;48.214;16.378;2023-05-20T04:08:41;13.80;75.30
76168;DHT22;64927;48.214;16.378;2023-05-20T04:11:07;13.90;75.50
76168;DHT22;64927;48.214;16.378;2023-05-20T04:13:32;14.00;75.30
76168;DHT22;64927;48.214;16.378;2023-05-20T04:15:58;14.30;74.50
76168;DHT22;64927;48.214;16.378;2023-05-20T04:18:26;14.40;74.30
76168;DHT22;64927;48.214;16.378;2023-05-20T04:20:54;14.50;73.80
76168;DHT22;64927;48.214;16.378;2023-05-20T04:23:25;14.30;73.50
76168;DHT22;64927;48.214;16.378;2023-05-20T04:25:53;14.30;73.90
76168;DHT22;64927;48.214;16.378;2023-05-20T04:28:19;14.30;74.00
76168;DHT22;64927;48.214;16.378;2023-05-20T04:30:48;14.30;73.70
76168;DHT22;64927;48.214;16.378;2023-05-20T04:33:14;14.50;73.40
76168;DHT22;64927;48.214;16.378;2023-05-20T04:35:40;14.60;72.80
76168;DHT22;64927;48.214;16.378;2023-05-20T04:38:06;14.70;72.90
76168;DHT22;64927;48.214;16.378;2023-05-20T04:40:32;14.80;72.10
76168;DHT22;64927;48.214;16.378;2023-05-20T04:43:01;14.80;72.00
76168;DHT22;64927;48.214;16.378;2023-05-20T04:45:30;14.80;72.00
76168;DHT22;64927;48.214;16.378;2023-05-20T04:48:00;14.90;71.80
76168;DHT22;64927;48.214;16.378;2023-05-20T04:50:25;14.80;71.90
76168;DHT22;64927;48.214;16.378;2023-05-20T04:52:51;14.90;72.10
76168;DHT22;64927;48.214;16.378;2023-05-20T04:55:17;14.90;71.40
76168;DHT22;64927;48.214;16.378;2023-05-20T04:57:48;14.90;71.30
76168;DHT22;64927;48.214;16.378;2023-05-20T05:00:14;14.90;71.80
76168;DHT22;64927;48.214;16.378;2023-05-20T05:02:40;14.90;72.20
76168;DHT22;64927;48.214;16.378;2023-05-20T05:05:06;15.00;71.60
76168;DHT22;64927;48.214;16.378;2023-05-20T05:07:34;14.90;71.50
76168;DHT22;64927;48.214;16.378;2023-05-20T05:10:00;15.10;72.30
76168;DHT22;64927;48.214;16.378;2023-05-20T05:12:28;15.00;71.40
76168;DHT22;64927;48.214;16.378;2023-05-20T05:14:53;14.80;71.70
76168;DHT22;64927;48.214;16.378;2023-05-20T05:17:21;15.00;71.60
76168;DHT22;64927;48.214;16.378;2023-05-20T05:19:47;15.30;70.70
76168;DHT22;64927;48.214;16.378;2023-05-20T05:22:15;15.50;70.60
76168;DHT22;64927;48.214;16.378;2023-05-20T05:24:43;15.60;69.90
76168;DHT22;64927;48.214;16.378;2023-05-20T05:27:11;15.70;68.70
76168;DHT22;64927;48.214;16.378;2023-05-20T05:29:36;15.70;69.30
76168;DHT22;64927;48.214;16.378;2023-05-20T05:32:04;15.50;69.30
76168;DHT22;64927;48.214;16.378;2023-05-20T05:34:32;15.50;69.40
76168;DHT22;64927;48.214;16.378;2023-05-20T05:36:57;15.60;69.20
76168;DHT22;64927;48.214;16.378;2023-05-20T05:39:23;15.50;69.40
76168;DHT22;64927;48.214;16.378;2023-05-20T05:41:48;15.60;69.00
76168;DHT22;64927;48.214;16.378;2023-05-20T05:44:16;15.80;69.40
76168;DHT22;64927;48.214;16.378;2023-05-20T05:46:44;16.30;68.70
76168;DHT22;64927;48.214;16.378;2023-05-20T05:49:10;16.70;66.70
76168;DHT22;64927;48.214;16.378;2023-05-20T05:51:36;16.90;65.80
76168;DHT22;64927;48.214;16.378;2023-05-20T05:54:04;16.80;64.60
76168;DHT22;64927;48.214;16.378;2023-05-20T05:56:30;16.70;65.80
76168;DHT22;64927;48.214;16.378;2023-05-20T05:58:56;16.90;65.20
76168;DHT22;64927;48.214;16.378;2023-05-20T06:01:22;16.80;64.80
76168;DHT22;64927;48.214;16.378;2023-05-20T06:03:47;16.90;64.60
76168;DHT22;64927;48.214;16.378;2023-05-20T06:06:13;16.90;64.90
76168;DHT22;64927;48.214;16.378;2023-05-20T06:08:39;17.10;65.00
76168;DHT22;64927;48.214;16.378;2023-05-20T06:11:05;17.20;63.50
76168;DHT22;64927;48.214;16.378;2023-05-20T06:13:30;17.10;64.10
76168;DHT22;64927;48.214;16.378;2023-05-20T06:15:56;17.20;64.30
76168;DHT22;64927;48.214;16.378;2023-05-20T06:18:24;17.60;63.60
76168;DHT22;64927;48.214;16.378;2023-05-20T06:20:56;17.60;62.70
76168;DHT22;64927;48.214;16.378;2023-05-20T06:23:22;17.80;63.00
76168;DHT22;64927;48.214;16.378;2023-05-20T06:25:48;18.50;62.70
76168;DHT22;64927;48.214;16.378;2023-05-20T06:28:14;18.90;59.30
76168;DHT22;64927;48.214;16.378;2023-05-20T06:30:40;19.20;58.40
76168;DHT22;64927;48.214;16.378;2023-05-20T06:33:06;19.60;58.90
76168;DHT22;64927;48.214;16.378;2023-05-20T06:35:31;19.90;56.20
76168;DHT22;64927;48.214;16.378;2023-05-20T06:38:02;20.00;56.20
76168;DHT22;64927;48.214;16.378;2023-05-20T06:40:28;20.10;56.30
76168;DHT22;64927;48.214;16.378;2023-05-20T06:42:56;20.40;55.40
76168;DHT22;64927;48.214;16.378;2023-05-20T06:45:22;20.60;53.60
76168;DHT22;64927;48.214;16.378;2023-05-20T06:47:47;20.60;56.20
76168;DHT22;64927;48.214;16.378;2023-05-20T06:50:14;21.00;53.70
76168;DHT22;64927;48.214;16.378;2023-05-20T06:52:40;21.30;53.60
76168;DHT22;64927;48.214;16.378;2023-05-20T06:55:06;21.20;53.60
76168;DHT22;64927;48.214;16.378;2023-05-20T06:57:31;21.00;53.50
76168;DHT22;64927;48.214;16.378;2023-05-20T06:59:59;20.80;54.50
76168;DHT22;64927;48.214;16.378;2023-05-20T07:02:27;20.70;54.30
76168;DHT22;64927;48.214;16.378;2023-05-20T07:04:52;20.30;56.00
76168;DHT22;64927;48.214;16.378;2023-05-20T07:07:18;20.20;55.20
76168;DHT22;64927;48.214;16.378;2023-05-20T07:09:44;20.50;55.40
76168;DHT22;64927;48.214;16.378;2023-05-20T07:12:09;20.60;54.20
76168;DHT22;64927;48.214;16.378;2023-05-20T07:14:35;20.00;55.60
76168;DHT22;64927;48.214;16.378;2023-05-20T07:17:01;19.70;57.00
76168;DHT22;64927;48.214;16.378;2023-05-20T07:19:29;19.50;57.80
76168;DHT22;64927;48.214;16.378;2023-05-20T07:21:55;19.60;59.00
76168;DHT22;64927;48.214;16.378;2023-05-20T07:24:21;20.30;59.40
76168;DHT22;64927;48.214;16.378;2023-05-20T07:26:46;21.10;56.20
76168;DHT22;64927;48.214;16.378;2023-05-20T07:29:12;21.60;53.40
76168;DHT22;64927;48.214;16.378;2023-05-20T07:31:38;21.90;52.90
76168;DHT22;64927;48.214;16.378;2023-05-20T07:34:03;21.90;53.30
76168;DHT22;64927;48.214;16.378;2023-05-20T07:36:29;21.70;53.50
76168;DHT22;64927;48.214;16.378;2023-05-20T07:38:55;21.80;53.10
76168;DHT22;64927;48.214;16.378;2023-05-20T07:41:23;22.00;51.20
76168;DHT22;64927;48.214;16.378;2023-05-20T07:43:49;21.80;52.30
76168;DHT22;64927;48.214;16.378;2023-05-20T07:46:14;22.10;53.50
76168;DHT22;64927;48.214;16.378;2023-05-20T07:48:41;22.70;50.50
76168;DHT22;64927;48.214;16.378;2023-05-20T07:51:09;23.10;50.20
76168;DHT22;64927;48.214;16.378;2023-05-20T07:53:36;22.80;49.30
76168;DHT22;64927;48.214;16.378;2023-05-20T07:56:02;22.10;52.20
76168;DHT22;64927;48.214;16.378;2023-05-20T07:58:27;22.30;52.10
76168;DHT22;64927;48.214;16.378;2023-05-20T08:00:56;23.00;51.70
76168;DHT22;64927;48.214;16.378;2023-05-20T08:03:22;23.70;49.20
76168;DHT22;64927;48.214;16.378;2023-05-20T08:05:50;23.70;47.60
76168;DHT22;64927;48.214;16.378;2023-05-20T08:08:18;23.50;48.00
76168;DHT22;64927;48.214;16.378;2023-05-20T08:10:46;23.70;48.20
76168;DHT22;64927;48.214;16.378;2023-05-20T08:13:12;23.40;49.10
76168;DHT22;64927;48.214;16.378;2023-05-20T08:15:38;23.40;48.50
76168;DHT22;64927;48.214;16.378;2023-05-20T08:18:05;23.90;47.60
76168;DHT22;64927;48.214;16.378;2023-05-20T08:20:31;24.10;46.50
76168;DHT22;64927;48.214;16.378;2023-05-20T08:22:57;24.10;47.00
76168;DHT22;64927;48.214;16.378;2023-05-20T08:25:25;24.10;46.20
76168;DHT22;64927;48.214;16.378;2023-05-20T08:27:50;23.60;47.40
76168;DHT22;64927;48.214;16.378;2023-05-20T08:30:16;23.20;47.80
76168;DHT22;64927;48.214;16.378;2023-05-20T08:32:42;22.90;49.50
76168;DHT22;64927;48.214;16.378;2023-05-20T08:35:07;23.00;50.20
76168;DHT22;64927;48.214;16.378;2023-05-20T08:37:33;23.30;49.00
76168;DHT22;64927;48.214;16.378;2023-05-20T08:39:59;23.50;49.50
76168;DHT22;64927;48.214;16.378;2023-05-20T08:42:24;23.50;48.50
76168;DHT22;64927;48.214;16.378;2023-05-20T08:44:51;23.70;49.50
76168;DHT22;64927;48.214;16.378;2023-05-20T08:47:21;24.00;47.20
76168;DHT22;64927;48.214;16.378;2023-05-20T08:49:50;24.10;47.80
76168;DHT22;64927;48.214;16.378;2023-05-20T08:52:20;24.00;46.80
76168;DHT22;64927;48.214;16.378;2023-05-20T08:54:48;24.10;47.70
76168;DHT22;64927;48.214;16.378;2023-05-20T08:57:16;24.30;46.60
76168;DHT22;64927;48.214;16.378;2023-05-20T08:59:45;24.10;46.90
76168;DHT22;64927;48.214;16.378;2023-05-20T09:02:11;24.00;48.60
76168;DHT22;64927;48.214;16.378;2023-05-20T09:04:40;24.60;47.80
76168;DHT22;64927;48.214;16.378;2023-05-20T09:07:05;25.20;46.10
76168;DHT22;64927;48.214;16.378;2023-05-20T09:09:34;25.40;45.10
76168;DHT22;64927;48.214;16.378;2023-05-20T09:12:03;24.90;44.50
76168;DHT22;64927;48.214;16.378;2023-05-20T09:14:30;24.60;46.70
76168;DHT22;64927;48.214;16.378;2023-05-20T09:16:55;24.50;46.40
76168;DHT22;64927;48.214;16.378;2023-05-20T09:19:24;24.40;46.50
76168;DHT22;64927;48.214;16.378;2023-05-20T09:21:53;24.00;47.20
76168;DHT22;64927;48.214;16.378;2023-05-20T09:24:23;23.90;48.80
76168;DHT22;64927;48.214;16.378;2023-05-20T09:26:50;24.10;47.90
76168;DHT22;64927;48.214;16.378;2023-05-20T09:29:18;24.10;47.30
76168;DHT22;64927;48.214;16.378;2023-05-20T09:31:46;24.00;48.10
76168;DHT22;64927;48.214;16.378;2023-05-20T09:34:14;23.90;48.10
76168;DHT22;64927;48.214;16.378;2023-05-20T09:36:42;24.10;48.10
76168;DHT22;64927;48.214;16.378;2023-05-20T09:39:12;24.30;47.80
76168;DHT22;64927;48.214;16.378;2023-05-20T09:41:51;24.50;47.20
76168;DHT22;64927;48.214;16.378;2023-05-20T09:44:20;24.60;47.70
76168;DHT22;64927;48.214;16.378;2023-05-20T09:46:49;24.90;47.60
76168;DHT22;64927;48.214;16.378;2023-05-20T09:49:15;24.90;46.80
76168;DHT22;64927;48.214;16.378;2023-05-20T09:51:42;25.10;46.70
76168;DHT22;64927;48.214;16.378;2023-05-20T09:54:11;25.10;46.80
76168;DHT22;64927;48.214;16.378;2023-05-20T09:56:39;25.10;46.50
76168;DHT22;64927;48.214;16.378;2023-05-20T09:59:07;25.40;46.50
76168;DHT22;64927;48.214;16.378;2023-05-20T10:01:33;25.60;45.30
76168;DHT22;64927;48.214;16.378;2023-05-20T10:03:59;25.10;46.10
76168;DHT22;64927;48.214;16.378;2023-05-20T10:12:59;25.30;46.10
76168;DHT22;64927;48.214;16.378;2023-05-20T10:15:44;25.00;47.00
76168;DHT22;64927;48.214;16.378;2023-05-20T10:18:47;24.90;47.20
76168;DHT22;64927;48.214;16.378;2023-05-20T10:21:21;24.80;48.40
76168;DHT22;64927;48.214;16.378;2023-05-20T10:23:49;24.90;47.60
76168;DHT22;64927;48.214;16.378;2023-05-20T10:26:18;24.90;47.00
76168;DHT22;64927;48.214;16.378;2023-05-20T10:28:46;24.60;48.10
76168;DHT22;64927;48.214;16.378;2023-05-20T10:33:44;24.60;48.10
76168;DHT22;64927;48.214;16.378;2023-05-20T10:36:31;24.50;47.70
76168;DHT22;64927;48.214;16.378;2023-05-20T10:39:00;24.50;48.40
76168;DHT22;64927;48.214;16.378;2023-05-20T10:41:31;24.70;48.40
76168;DHT22;64927;48.214;16.378;2023-05-20T10:44:00;24.80;47.80
76168;DHT22;64927;48.214;16.378;2023-05-20T10:46:27;24.80;48.30
76168;DHT22;64927;48.214;16.378;2023-05-20T10:48:53;24.70;48.40
76168;DHT22;64927;48.214;16.378;2023-05-20T10:51:19;24.60;48.50
76168;DHT22;64927;48.214;16.378;2023-05-20T10:53:45;24.60;48.50
76168;DHT22;64927;48.214;16.378;2023-05-20T10:56:25;24.60;48.60
76168;DHT22;64927;48.214;16.378;2023-05-20T10:58:52;24.50;49.00
76168;DHT22;64927;48.214;16.378;2023-05-20T11:01:24;24.60;48.90
76168;DHT22;64927;48.214;16.378;2023-05-20T11:03:51;24.70;48.20
76168;DHT22;64927;48.214;16.378;2023-05-20T11:06:18;24.70;48.20
76168;DHT22;64927;48.214;16.378;2023-05-20T11:08:44;24.80;48.20
76168;DHT22;64927;48.214;16.378;2023-05-20T11:11:11;24.70;48.90
76168;DHT22;64927;48.214;16.378;2023-05-20T11:13:37;24.70;48.90
76168;DHT22;64927;48.214;16.378;2023-05-20T11:16:06;24.80;48.10
76168;DHT22;64927;48.214;16.378;2023-05-20T11:18:32;24.80;48.10
76168;DHT22;64927;48.214;16.378;2023-05-20T11:20:58;24.80;47.60
76168;DHT22;64927;48.214;16.378;2023-05-20T11:23:28;24.70;48.10
76168;DHT22;64927;48.214;16.378;2023-05-20T11:25:55;24.70;48.30
76168;DHT22;64927;48.214;16.378;2023-05-20T11:28:22;24.80;48.30
76168;DHT22;64927;48.214;16.378;2023-05-20T11:30:49;25.00;47.40
76168;DHT22;64927;48.214;16.378;2023-05-20T11:33:16;25.10;47.30
76168;DHT22;64927;48.214;16.378;2023-05-20T11:35:47;25.30;47.10
76168;DHT22;64927;48.214;16.378;2023-05-20T11:38:14;25.30;46.50
76168;DHT22;64927;48.214;16.378;2023-05-20T11:40:50;25.50;46.20
76168;DHT22;64927;48.214;16.378;2023-05-20T11:43:16;25.60;46.20
76168;DHT22;64927;48.214;16.378;2023-05-20T11:45:43;25.60;46.20
76168;DHT22;64927;48.214;16.378;2023-05-20T11:48:09;25.80;45.90
76168;DHT22;64927;48.214;16.378;2023-05-20T11:50:39;26.10;44.40
76168;DHT22;64927;48.214;16.378;2023-05-20T11:53:18;26.20;44.30
76168;DHT22;64927;48.214;16.378;2023-05-20T11:55:54;26.30;44.90
76168;DHT22;64927;48.214;16.378;2023-05-20T11:58:24;26.40;43.80
76168;DHT22;64927;48.214;16.378;2023-05-20T12:00:50;26.30;43.30
76168;DHT22;64927;48.214;16.378;2023-05-20T12:03:16;26.20;43.90
76168;DHT22;64927;48.214;16.378;2023-05-20T12:05:42;26.30;43.80
76168;DHT22;64927;48.214;16.378;2023-05-20T12:08:10;26.40;43.50
76168;DHT22;64927;48.214;16.378;2023-05-20T12:10:38;26.50;42.60
76168;DHT22;64927;48.214;16.378;2023-05-20T12:13:06;26.50;42.70
76168;DHT22;64927;48.214;16.378;2023-05-20T12:15:38;26.70;43.30
76168;DHT22;64927;48.214;16.378;2023-05-20T12:18:06;26.70;42.80
76168;DHT22;64927;48.214;16.378;2023-05-20T12:20:32;26.70;41.70
76168;DHT22;64927;48.214;16.378;2023-05-20T12:22:59;26.70;42.30
76168;DHT22;64927;48.214;16.378;2023-05-20T12:25:25;26.60;42.90
76168;DHT22;64927;48.214;16.378;2023-05-20T12:27:54;26.60;41.00
76168;DHT22;64927;48.214;16.378;2023-05-20T12:30:21;26.50;40.60
76168;DHT22;64927;48.214;16.378;2023-05-20T12:32:48;26.50;41.10
76168;DHT22;64927;48.214;16.378;2023-05-20T12:35:15;26.30;42.00
76168;DHT22;64927;48.214;16.378;2023-05-20T12:37:42;26.40;41.60
76168;DHT22;64927;48.214;16.378;2023-05-20T12:40:11;26.40;40.50
76168;DHT22;64927;48.214;16.378;2023-05-20T12:42:40;26.30;40.20
76168;DHT22;64927;48.214;16.378;2023-05-20T12:45:07;26.20;39.80
76168;DHT22;64927;48.214;16.378;2023-05-20T12:47:36;26.20;40.10
76168;DHT22;64927;48.214;16.378;2023-05-20T12:50:04;26.30;40.20
76168;DHT22;64927;48.214;16.378;2023-05-20T12:52:30;26.40;39.70
76168;DHT22;64927;48.214;16.378;2023-05-20T12:54:56;26.30;40.00
76168;DHT22;64927;48.214;16.378;2023-05-20T12:57:24;26.20;41.50
76168;DHT22;64927;48.214;16.378;2023-05-20T12:59:53;26.30;39.00
76168;DHT22;64927;48.214;16.378;2023-05-20T13:02:18;26.20;39.70
76168;DHT22;64927;48.214;16.378;2023-05-20T13:04:45;26.10;40.00
76168;DHT22;64927;48.214;16.378;2023-05-20T13:07:10;26.20;40.50
76168;DHT22;64927;48.214;16.378;2023-05-20T13:09:36;26.30;40.90
76168;DHT22;64927;48.214;16.378;2023-05-20T13:12:02;26.40;40.20
76168;DHT22;64927;48.214;16.378;2023-05-20T13:14:30;26.40;39.40
76168;DHT22;64927;48.214;16.378;2023-05-20T13:16:58;26.30;39.30
76168;DHT22;64927;48.214;16.378;2023-05-20T13:19:24;26.20;39.70
76168;DHT22;64927;48.214;16.378;2023-05-20T13:21:52;26.20;40.50
76168;DHT22;64927;48.214;16.378;2023-05-20T13:24:21;26.30;40.80
76168;DHT22;64927;48.214;16.378;2023-05-20T13:26:47;26.30;40.70
76168;DHT22;64927;48.214;16.378;2023-05-20T13:29:17;26.20;39.50
76168;DHT22;64927;48.214;16.378;2023-05-20T13:31:43;26.10;40.50
76168;DHT22;64927;48.214;16.378;2023-05-20T13:34:09;26.00;41.00
76168;DHT22;64927;48.214;16.378;2023-05-20T13:36:34;26.10;41.20
76168;DHT22;64927;48.214;16.378;2023-05-20T13:39:00;26.30;41.20
76168;DHT22;64927;48.214;16.378;2023-05-20T13:41:26;26.40;40.60
76168;DHT22;64927;48.214;16.378;2023-05-20T13:43:52;26.40;40.50
76168;DHT22;64927;48.214;16.378;2023-05-20T13:46:17;26.40;40.70
76168;DHT22;64927;48.214;16.378;2023-05-20T13:48:46;26.40;41.00
76168;DHT22;64927;48.214;16.378;2023-05-20T13:51:11;26.30;41.40
76168;DHT22;64927;48.214;16.378;2023-05-20T13:53:37;26.20;41.40
76168;DHT22;64927;48.214;16.378;2023-05-20T13:56:06;26.10;41.70
76168;DHT22;64927;48.214;16.378;2023-05-20T13:58:36;26.20;41.90
76168;DHT22;64927;48.214;16.378;2023-05-20T14:01:02;26.20;41.70
76168;DHT22;64927;48.214;16.378;2023-05-20T14:03:31;26.20;41.40
76168;DHT22;64927;48.214;16.378;2023-05-20T14:05:58;26.20;41.50
76168;DHT22;64927;48.214;16.378;2023-05-20T14:08:24;26.20;41.80
76168;DHT22;64927;48.214;16.378;2023-05-20T14:10:50;26.30;42.10
76168;DHT22;64927;48.214;16.378;2023-05-20T14:13:23;26.30;41.70
76168;DHT22;64927;48.214;16.378;2023-05-20T14:15:49;26.30;42.10
76168;DHT22;64927;48.214;16.378;2023-05-20T14:18:16;26.30;42.40
76168;DHT22;64927;48.214;16.378;2023-05-20T14:20:44;26.20;42.70
76168;DHT22;64927;48.214;16.378;2023-05-20T14:23:10;26.10;42.80
76168;DHT22;64927;48.214;16.378;2023-05-20T14:25:39;26.10;43.10
76168;DHT22;64927;48.214;16.378;2023-05-20T14:28:07;26.00;42.80
76168;DHT22;64927;48.214;16.378;2023-05-20T14:30:32;26.00;42.80
76168;DHT22;64927;48.214;16.378;2023-05-20T14:32:58;26.20;42.80
76168;DHT22;64927;48.214;16.378;2023-05-20T14:35:24;26.20;43.00
76168;DHT22;64927;48.214;16.378;2023-05-20T14:37:49;26.20;43.30
76168;DHT22;64927;48.214;16.378;2023-05-20T14:40:15;26.20;43.10
76168;DHT22;64927;48.214;16.378;2023-05-20T14:42:41;26.30;44.30
76168;DHT22;64927;48.214;16.378;2023-05-20T14:45:07;26.20;43.30
76168;DHT22;64927;48.214;16.378;2023-05-20T14:47:33;26.30;42.70
76168;DHT22;64927;48.214;16.378;2023-05-20T14:49:58;26.30;43.20
76168;DHT22;64927;48.214;16.378;2023-05-20T14:52:25;26.30;42.30
76168;DHT22;64927;48.214;16.378;2023-05-20T14:54:50;26.30;42.40
76168;DHT22;64927;48.214;16.378;2023-05-20T14:57:16;26.20;42.60
76168;DHT22;64927;48.214;16.378;2023-05-20T14:59:42;26.20;42.20
76168;DHT22;64927;48.214;16.378;2023-05-20T15:02:12;26.10;42.50
76168;DHT22;64927;48.214;16.378;2023-05-20T15:04:38;26.10;42.80
76168;DHT22;64927;48.214;16.378;2023-05-20T15:07:05;26.20;42.60
76168;DHT22;64927;48.214;16.378;2023-05-20T15:09:37;26.20;43.00
76168;DHT22;64927;48.214;16.378;2023-05-20T15:12:03;26.30;42.70
76168;DHT22;64927;48.214;16.378;2023-05-20T15:14:29;26.30;42.90
76168;DHT22;64927;48.214;16.378;2023-05-20T15:16:55;26.40;42.90
76168;DHT22;64927;48.214;16.378;2023-05-20T15:19:20;26.40;43.00
76168;DHT22;64927;48.214;16.378;2023-05-20T15:21:46;26.30;43.00
76168;DHT22;64927;48.214;16.378;2023-05-20T15:24:16;26.40;42.90